createdAt,value
2023-11-07T00:01:28.112Z,1.40
2023-11-07T00:03:54.792Z,1.40
2023-11-07T00:06:21.430Z,1.20
2023-11-07T00:08:48.158Z,1.30
2023-11-07T00:11:14.774Z,1.30
2023-11-07T00:13:43.299Z,1.40
2023-11-07T00:16:13.328Z,1.20
2023-11-07T00:18:40.878Z,1.40
2023-11-07T00:21:07.875Z,1.20
2023-11-07T00:23:34.700Z,1.40
2023-11-07T00:26:02.572Z,1.40
2023-11-07T00:28:29.081Z,1.30
2023-11-07T00:30:55.566Z,1.40
2023-11-07T00:33:22.442Z,1.50
2023-11-07T00:35:49.027Z,1.40
2023-11-07T00:38:15.785Z,1.30
2023-11-07T00:40:42.432Z,1.40
2023-11-07T00:43:09.089Z,1.30
2023-11-07T00:45:35.762Z,1.50
2023-11-07T00:48:02.678Z,1.40
2023-11-07T00:50:29.651Z,1.30
2023-11-07T00:52:56.116Z,1.50
2023-11-07T00:55:22.789Z,1.50
2023-11-07T00:57:49.636Z,1.30
2023-11-07T01:00:16.803Z,1.40
2023-11-07T01:02:45.390Z,1.30
2023-11-07T01:05:12.905Z,1.60
2023-11-07T01:07:40.371Z,1.30
2023-11-07T01:10:08.046Z,1.40
2023-11-07T01:12:35.144Z,1.40
2023-11-07T01:15:03.960Z,1.30
2023-11-07T01:17:32.381Z,1.40
2023-11-07T01:19:59.361Z,1.40
2023-11-07T01:22:26.871Z,1.50
2023-11-07T01:24:53.580Z,1.30
2023-11-07T01:27:20.079Z,1.30
2023-11-07T01:29:46.739Z,1.40
2023-11-07T01:32:13.526Z,1.50
2023-11-07T01:34:40.008Z,1.60
2023-11-07T01:37:07.473Z,1.30
2023-11-07T01:39:33.997Z,1.70
2023-11-07T01:42:00.556Z,1.60
2023-11-07T01:44:30.369Z,1.40
2023-11-07T01:46:57.474Z,1.30
2023-11-07T01:49:25.241Z,1.70
2023-11-07T01:51:51.862Z,1.50
2023-11-07T01:54:18.683Z,1.50
2023-11-07T01:56:45.640Z,1.40
2023-11-07T01:59:12.203Z,1.50
2023-11-07T02:01:39.115Z,1.60
2023-11-07T02:04:05.814Z,1.40
2023-11-07T02:06:33.170Z,1.50
2023-11-07T02:09:01.087Z,1.40
2023-11-07T02:11:29.312Z,1.50
2023-11-07T02:13:56.812Z,1.60
2023-11-07T02:16:23.817Z,1.50
2023-11-07T02:18:51.731Z,1.70
2023-11-07T02:21:18.324Z,1.40
2023-11-07T02:23:44.962Z,1.60
2023-11-07T02:26:11.729Z,1.30
2023-11-07T02:28:39.482Z,1.50
2023-11-07T02:31:06.586Z,1.70
2023-11-07T02:33:33.645Z,1.60
2023-11-07T02:36:00.831Z,1.50
2023-11-07T02:38:29.385Z,1.70
2023-11-07T02:40:56.223Z,1.60
2023-11-07T02:43:22.817Z,1.50
2023-11-07T02:45:49.418Z,1.50
2023-11-07T02:48:16.222Z,1.70
2023-11-07T02:50:43.109Z,1.60
2023-11-07T02:53:09.886Z,1.30
2023-11-07T02:55:36.520Z,1.60
2023-11-07T02:58:03.059Z,1.50
2023-11-07T03:00:29.736Z,1.50
2023-11-07T03:02:56.329Z,1.80
2023-11-07T03:05:23.186Z,1.60
2023-11-07T03:07:49.695Z,1.50
2023-11-07T03:10:16.489Z,1.50
2023-11-07T03:12:43.160Z,1.50
2023-11-07T03:15:10.089Z,1.50
2023-11-07T03:17:37.197Z,1.40
2023-11-07T03:20:06.992Z,1.70
2023-11-07T03:22:33.653Z,1.60
2023-11-07T03:25:00.261Z,1.40
2023-11-07T03:27:26.835Z,1.50
2023-11-07T03:29:53.872Z,1.70
2023-11-07T03:32:20.374Z,1.70
2023-11-07T03:34:46.869Z,1.50
2023-11-07T03:37:13.575Z,1.90
2023-11-07T03:39:40.246Z,1.70
2023-11-07T03:42:07.094Z,1.60
2023-11-07T03:44:35.530Z,1.60
2023-11-07T03:47:06.121Z,1.60
2023-11-07T03:49:33.489Z,1.50
2023-11-07T03:52:00.665Z,1.70
2023-11-07T03:54:27.636Z,1.60
2023-11-07T03:56:54.181Z,1.70
2023-11-07T03:59:20.921Z,1.40
2023-11-07T04:01:47.664Z,1.60
2023-11-07T04:04:14.435Z,1.60
2023-11-07T04:06:41.113Z,1.50
2023-11-07T04:09:08.337Z,1.50
2023-11-07T04:11:34.913Z,1.50
2023-11-07T04:14:01.400Z,1.60
2023-11-07T04:16:28.408Z,1.50
2023-11-07T04:18:55.601Z,1.60
2023-11-07T04:21:22.604Z,1.50
2023-11-07T04:23:49.518Z,1.40
2023-11-07T04:26:16.922Z,1.50
2023-11-07T04:28:43.476Z,1.60
2023-11-07T04:31:10.061Z,1.70
2023-11-07T04:33:39.001Z,1.50
2023-11-07T04:36:07.078Z,1.60
2023-11-07T04:38:34.734Z,1.60
2023-11-07T04:41:02.467Z,1.70
2023-11-07T04:44:23.530Z,1.70
2023-11-07T04:46:50.773Z,1.60
2023-11-07T04:49:18.140Z,1.60
2023-11-07T04:51:45.562Z,1.60
2023-11-07T04:54:12.920Z,1.50
2023-11-07T04:56:40.355Z,1.80
2023-11-07T04:59:07.784Z,1.80
2023-11-07T05:01:35.700Z,2.00
2023-11-07T05:04:03.600Z,2.70
2023-11-07T05:06:32.051Z,3.00
2023-11-07T05:09:00.104Z,2.90
2023-11-07T05:11:28.835Z,2.80
2023-11-07T05:13:56.106Z,2.40
2023-11-07T05:16:23.316Z,2.60
2023-11-07T05:18:50.693Z,2.20
2023-11-07T05:21:18.249Z,2.20
2023-11-07T05:23:45.738Z,2.50
2023-11-07T05:26:13.158Z,2.50
2023-11-07T05:28:40.539Z,2.40
2023-11-07T05:31:07.785Z,2.20
2023-11-07T05:33:36.017Z,2.00
2023-11-07T05:36:04.738Z,2.10
2023-11-07T05:38:32.197Z,2.20
2023-11-07T05:40:59.435Z,2.00
2023-11-07T05:43:26.954Z,2.20
2023-11-07T05:45:54.514Z,1.90
2023-11-07T05:48:25.580Z,2.20
2023-11-07T05:50:53.059Z,1.80
2023-11-07T05:53:20.393Z,1.80
2023-11-07T05:55:47.873Z,2.40
2023-11-07T05:58:15.552Z,2.60
2023-11-07T06:00:42.786Z,2.40
2023-11-07T06:03:10.151Z,2.90
2023-11-07T06:05:37.535Z,2.80
2023-11-07T06:08:05.389Z,2.70
2023-11-07T06:10:32.593Z,2.70
2023-11-07T06:12:59.880Z,2.40
2023-11-07T06:15:27.204Z,2.20
2023-11-07T06:17:54.510Z,2.40
2023-11-07T06:20:22.787Z,2.20
2023-11-07T06:22:51.925Z,2.10
2023-11-07T06:25:20.343Z,2.20
2023-11-07T06:27:52.354Z,2.10
2023-11-07T06:30:21.390Z,2.30
2023-11-07T06:32:51.147Z,2.30
2023-11-07T06:35:18.674Z,2.70
2023-11-07T06:37:47.543Z,2.50
2023-11-07T06:40:17.196Z,2.40
2023-11-07T06:42:47.420Z,2.50
2023-11-07T06:45:15.313Z,2.70
2023-11-07T06:47:47.188Z,2.30
2023-11-07T06:50:17.272Z,2.10
2023-11-07T06:52:54.311Z,2.00
2023-11-07T06:55:26.609Z,2.00
2023-11-07T06:57:56.371Z,2.00
2023-11-07T07:00:26.709Z,1.90
2023-11-07T07:02:58.590Z,1.80
2023-11-07T07:05:27.014Z,1.80
2023-11-07T07:07:55.989Z,1.80
2023-11-07T07:10:24.258Z,1.80
2023-11-07T07:12:52.362Z,1.80
2023-11-07T07:15:19.689Z,1.50
2023-11-07T07:17:47.545Z,1.90
2023-11-07T07:20:14.986Z,13.60
2023-11-07T07:22:43.128Z,11.20
2023-11-07T07:25:16.846Z,7.00
2023-11-07T07:27:48.620Z,23.60
2023-11-07T07:30:22.763Z,8.90
2023-11-07T07:32:52.082Z,9.40
2023-11-07T07:35:22.492Z,25.80
2023-11-07T07:37:53.811Z,7.90
2023-11-07T07:40:30.888Z,11.90
2023-11-07T07:43:10.427Z,2.00
2023-11-07T07:45:45.352Z,1.60
2023-11-07T07:48:13.267Z,1.60
2023-11-07T07:50:43.417Z,2.00
2023-11-07T07:53:11.969Z,1.60
2023-11-07T07:55:44.562Z,1.70
2023-11-07T07:58:12.468Z,1.50
2023-11-07T08:00:39.945Z,1.70
2023-11-07T08:03:11.349Z,1.60
2023-11-07T08:05:41.047Z,1.70
2023-11-07T08:08:09.885Z,1.40
2023-11-07T08:10:37.658Z,1.80
2023-11-07T08:13:08.831Z,1.90
2023-11-07T08:15:37.521Z,1.60
2023-11-07T08:18:08.942Z,1.60
2023-11-07T08:20:39.600Z,1.70
2023-11-07T08:23:07.259Z,1.60
2023-11-07T08:25:35.128Z,1.80
2023-11-07T08:28:08.144Z,1.80
2023-11-07T08:30:38.831Z,2.00
2023-11-07T08:33:08.995Z,10.90
2023-11-07T08:35:38.076Z,1.90
2023-11-07T08:38:05.802Z,1.60
2023-11-07T08:40:33.216Z,1.50
2023-11-07T08:43:01.253Z,1.80
2023-11-07T08:45:30.060Z,1.70
2023-11-07T08:47:58.341Z,1.70
2023-11-07T08:50:27.093Z,1.90
2023-11-07T08:52:54.764Z,1.80
2023-11-07T08:55:22.545Z,1.90
2023-11-07T08:57:51.226Z,1.40
2023-11-07T09:00:23.363Z,1.80
2023-11-07T09:02:52.044Z,1.60
2023-11-07T09:05:19.705Z,1.40
2023-11-07T09:07:47.916Z,1.40
2023-11-07T09:10:15.736Z,1.50
2023-11-07T09:12:43.610Z,1.70
2023-11-07T09:15:12.675Z,1.40
2023-11-07T09:17:40.966Z,1.30
2023-11-07T09:20:13.050Z,1.40
2023-11-07T09:22:44.360Z,1.50
2023-11-07T09:25:13.095Z,1.40
2023-11-07T09:27:40.819Z,1.20
2023-11-07T09:30:10.668Z,1.40
2023-11-07T09:32:39.823Z,1.30
2023-11-07T09:35:08.783Z,1.20
2023-11-07T09:37:42.485Z,1.10
2023-11-07T09:40:24.179Z,1.10
2023-11-07T09:42:53.409Z,1.20
2023-11-07T09:45:21.103Z,1.30
2023-11-07T09:47:50.604Z,1.20
2023-11-07T09:50:20.223Z,1.10
2023-11-07T09:52:48.961Z,1.20
2023-11-07T09:55:17.278Z,1.10
2023-11-07T09:58:09.638Z,1.20
2023-11-07T10:00:45.073Z,1.30
2023-11-07T10:03:13.307Z,1.20
2023-11-07T10:05:41.208Z,1.20
2023-11-07T10:08:08.620Z,1.20
2023-11-07T10:10:36.133Z,1.10
2023-11-07T10:13:11.907Z,1.10
2023-11-07T10:15:40.363Z,1.50
2023-11-07T10:18:12.458Z,1.10
2023-11-07T10:20:51.585Z,1.10
2023-11-07T10:23:19.437Z,1.30
2023-11-07T10:25:51.672Z,1.20
2023-11-07T10:28:21.590Z,1.20
2023-11-07T10:30:49.823Z,1.00
2023-11-07T10:33:29.861Z,1.10
2023-11-07T10:36:01.886Z,1.00
2023-11-07T10:38:32.993Z,1.10
2023-11-07T10:41:02.799Z,1.00
2023-11-07T10:43:36.616Z,1.30
2023-11-07T10:46:10.167Z,1.10
2023-11-07T10:48:41.952Z,1.30
2023-11-07T10:51:14.445Z,1.20
2023-11-07T10:53:45.764Z,1.00
2023-11-07T10:56:19.301Z,1.10
2023-11-07T11:01:47.540Z,1.00
2023-11-07T11:04:15.797Z,1.00
2023-11-07T11:06:53.537Z,1.10
2023-11-07T11:09:22.379Z,1.20
2023-11-07T11:11:52.085Z,1.00
2023-11-07T11:14:20.493Z,1.00
2023-11-07T11:16:49.103Z,1.00
2023-11-07T11:19:28.548Z,1.10
2023-11-07T11:22:25.465Z,0.90
2023-11-07T11:25:20.615Z,1.10
2023-11-07T11:27:52.388Z,0.90
2023-11-07T11:30:28.094Z,1.30
2023-11-07T11:33:08.452Z,1.10
2023-11-07T11:35:42.809Z,1.10
2023-11-07T11:38:16.597Z,1.20
2023-11-07T11:41:02.136Z,1.20
2023-11-07T11:43:35.067Z,1.00
2023-11-07T11:46:13.089Z,1.10
2023-11-07T11:48:53.265Z,1.20
2023-11-07T11:51:35.132Z,1.00
2023-11-07T11:54:02.516Z,1.00
2023-11-07T11:56:29.878Z,1.10
2023-11-07T11:59:04.546Z,1.10
2023-11-07T12:01:47.605Z,1.20
2023-11-07T12:04:51.117Z,1.00
2023-11-07T12:07:22.650Z,1.20
2023-11-07T12:09:54.401Z,1.20
2023-11-07T12:12:21.713Z,1.10
2023-11-07T12:14:56.364Z,1.00
2023-11-07T12:17:44.216Z,1.10
2023-11-07T12:20:15.793Z,1.00
2023-11-07T12:22:44.774Z,1.10
2023-11-07T12:25:22.125Z,1.10
2023-11-07T12:28:06.937Z,1.10
2023-11-07T12:30:35.650Z,1.10
2023-11-07T12:33:05.220Z,1.30
2023-11-07T12:35:32.758Z,1.10
2023-11-07T12:38:02.184Z,1.10
2023-11-07T12:40:30.050Z,1.30
2023-11-07T12:42:57.535Z,1.30
2023-11-07T12:45:32.724Z,1.10
2023-11-07T12:48:01.587Z,1.20
2023-11-07T12:50:32.675Z,1.20
2023-11-07T12:53:02.029Z,1.20
2023-11-07T12:55:29.779Z,1.20
2023-11-07T12:57:57.517Z,1.20
2023-11-07T13:00:26.948Z,1.30
2023-11-07T13:02:58.970Z,1.10
2023-11-07T13:05:26.819Z,1.10
2023-11-07T13:07:54.544Z,1.20
2023-11-07T13:10:22.236Z,1.10
2023-11-07T13:12:52.653Z,1.10
2023-11-07T13:15:20.065Z,1.20
2023-11-07T13:17:48.032Z,1.10
2023-11-07T13:20:18.150Z,1.20
2023-11-07T13:22:47.247Z,1.50
2023-11-07T13:25:15.157Z,1.20
2023-11-07T13:27:44.048Z,1.30
2023-11-07T13:30:20.170Z,1.30
2023-11-07T13:32:47.634Z,1.50
2023-11-07T13:35:15.084Z,1.30
2023-11-07T13:37:42.724Z,1.20
2023-11-07T13:40:11.086Z,1.10
2023-11-07T13:42:39.139Z,1.20
2023-11-07T13:45:07.408Z,1.30
2023-11-07T13:47:34.951Z,1.30
2023-11-07T13:50:05.957Z,1.50
2023-11-07T13:52:33.631Z,1.50
2023-11-07T13:55:01.254Z,1.50
2023-11-07T13:57:28.641Z,1.70
2023-11-07T13:59:56.064Z,1.40
2023-11-07T14:02:23.457Z,1.40
2023-11-07T14:04:50.796Z,1.40
2023-11-07T14:07:18.577Z,1.60
2023-11-07T14:09:45.916Z,1.50
2023-11-07T14:12:13.973Z,1.80
2023-11-07T14:14:41.657Z,1.80
2023-11-07T14:17:09.225Z,2.10
2023-11-07T14:19:36.583Z,1.80
2023-11-07T14:26:10.257Z,1.50
2023-11-07T14:28:46.826Z,1.80
2023-11-07T14:31:22.613Z,2.40
2023-11-07T14:33:50.909Z,2.50
2023-11-07T14:36:18.999Z,2.60
2023-11-07T14:38:47.125Z,2.60
2023-11-07T14:41:15.522Z,3.00
2023-11-07T14:43:42.917Z,3.10
2023-11-07T14:46:11.236Z,3.20
2023-11-07T14:48:38.750Z,3.30
2023-11-07T14:51:06.233Z,4.10
2023-11-07T14:53:34.443Z,4.50
2023-11-07T14:56:01.971Z,3.30
2023-11-07T14:58:29.395Z,3.10
2023-11-07T15:00:57.980Z,3.20
2023-11-07T15:03:25.759Z,3.30
2023-11-07T15:05:55.180Z,9.80
2023-11-07T15:08:23.583Z,23.90
2023-11-07T15:10:51.512Z,26.40
2023-11-07T15:13:19.015Z,21.00
2023-11-07T15:15:46.595Z,13.70
2023-11-07T15:18:14.094Z,13.70
2023-11-07T15:20:43.800Z,17.30
2023-11-07T15:23:11.215Z,10.50
2023-11-07T15:25:40.870Z,7.90
2023-11-07T15:28:08.401Z,7.60
2023-11-07T15:30:36.888Z,11.00
2023-11-07T15:33:05.083Z,15.70
2023-11-07T15:35:38.021Z,11.20
2023-11-07T15:38:10.340Z,8.20
2023-11-07T15:40:40.428Z,6.40
2023-11-07T15:43:09.533Z,10.20
2023-11-07T15:45:37.057Z,9.50
2023-11-07T15:48:09.390Z,7.80
2023-11-07T15:50:37.989Z,8.30
2023-11-07T15:53:08.647Z,7.60
2023-11-07T15:55:38.412Z,7.40
2023-11-07T15:58:06.825Z,18.70
2023-11-07T16:00:35.281Z,17.40
2023-11-07T16:03:04.186Z,15.80
2023-11-07T16:05:35.318Z,17.70
2023-11-07T16:08:03.575Z,18.10
2023-11-07T16:10:32.843Z,16.60
2023-11-07T16:13:00.747Z,13.20
2023-11-07T16:15:28.148Z,12.00
2023-11-07T16:17:56.094Z,9.00
2023-11-07T16:20:24.382Z,10.00
2023-11-07T16:22:51.828Z,11.10
2023-11-07T16:25:20.251Z,7.30
2023-11-07T16:27:48.185Z,6.20
2023-11-07T16:30:17.731Z,4.20
2023-11-07T16:32:45.438Z,5.10
2023-11-07T16:35:13.972Z,5.70
2023-11-07T16:37:41.315Z,6.30
2023-11-07T16:40:12.505Z,7.60
2023-11-07T16:42:42.045Z,4.90
2023-11-07T16:45:13.819Z,4.30
2023-11-07T16:50:14.647Z,6.30
2023-11-07T16:52:42.443Z,8.10
2023-11-07T16:55:14.952Z,7.10
2023-11-07T16:57:43.853Z,6.20
2023-11-07T17:00:13.103Z,6.40
2023-11-07T17:02:42.303Z,6.50
2023-11-07T17:05:10.576Z,6.00
2023-11-07T17:07:38.189Z,6.10
2023-11-07T17:10:09.740Z,5.10
2023-11-07T17:12:37.515Z,5.20
2023-11-07T17:15:08.444Z,5.60
2023-11-07T17:17:36.063Z,5.10
2023-11-07T17:20:07.027Z,5.10
2023-11-07T17:22:37.473Z,5.00
2023-11-07T17:25:05.807Z,5.20
2023-11-07T17:27:33.496Z,6.00
2023-11-07T17:30:01.176Z,6.00
2023-11-07T17:32:29.608Z,5.70
2023-11-07T17:34:59.887Z,5.30
2023-11-07T17:37:29.838Z,5.40
2023-11-07T17:39:57.559Z,5.90
2023-11-07T17:42:25.647Z,5.40
2023-11-07T17:44:52.964Z,5.50
2023-11-07T17:47:21.907Z,5.50
2023-11-07T17:49:49.480Z,5.80
2023-11-07T17:52:19.471Z,5.60
2023-11-07T17:54:46.913Z,5.50
2023-11-07T17:57:14.238Z,5.90
2023-11-07T17:59:41.599Z,6.40
2023-11-07T18:02:09.208Z,5.70
2023-11-07T18:04:37.379Z,6.00
2023-11-07T18:07:04.760Z,5.50
2023-11-07T18:09:32.212Z,6.00
2023-11-07T18:11:59.652Z,6.20
2023-11-07T18:14:28.846Z,6.60
2023-11-07T18:16:58.273Z,6.20
2023-11-07T18:19:25.865Z,6.30
2023-11-07T18:21:53.237Z,5.90
2023-11-07T18:24:20.550Z,6.50
2023-11-07T18:26:51.040Z,6.40
2023-11-07T18:29:18.582Z,5.70
2023-11-07T18:31:45.969Z,5.90
2023-11-07T18:34:20.939Z,5.80
2023-11-07T18:37:00.668Z,6.10
2023-11-07T18:39:32.133Z,6.20
2023-11-07T18:42:00.179Z,6.30
2023-11-07T18:44:37.001Z,6.40
2023-11-07T18:47:04.899Z,6.40
2023-11-07T18:49:35.171Z,6.10
2023-11-07T18:52:03.924Z,6.40
2023-11-07T18:54:31.473Z,6.20
2023-11-07T18:56:59.330Z,6.30
2023-11-07T18:59:34.341Z,6.80
2023-11-07T19:02:06.749Z,5.60
2023-11-07T19:04:37.408Z,5.80
2023-11-07T19:07:06.334Z,5.40
2023-11-07T19:09:34.240Z,5.40
2023-11-07T19:12:04.772Z,6.10
2023-11-07T19:14:32.218Z,5.50
2023-11-07T19:16:59.746Z,5.30
2023-11-07T19:19:28.344Z,5.40
2023-11-07T19:21:56.722Z,5.90
2023-11-07T19:24:24.046Z,7.00
2023-11-07T19:26:51.647Z,7.90
2023-11-07T19:29:19.533Z,8.10
2023-11-07T19:31:51.385Z,8.70
2023-11-07T19:34:21.559Z,9.20
2023-11-07T19:36:49.531Z,11.40
2023-11-07T19:39:18.695Z,9.60
2023-11-07T19:41:47.075Z,10.60
2023-11-07T19:44:14.692Z,8.90
2023-11-07T19:46:41.979Z,7.80
2023-11-07T19:49:09.339Z,6.00
2023-11-07T19:51:39.163Z,5.70
2023-11-07T19:54:07.111Z,5.60
2023-11-07T19:56:42.210Z,5.60
2023-11-07T19:59:11.711Z,6.10
2023-11-07T20:01:40.631Z,6.30
2023-11-07T20:04:09.471Z,7.60
2023-11-07T20:06:37.298Z,6.60
2023-11-07T20:09:04.758Z,5.80
2023-11-07T20:11:33.541Z,5.20
2023-11-07T20:14:01.996Z,5.30
2023-11-07T20:16:29.491Z,5.50
2023-11-07T20:18:56.907Z,5.60
2023-11-07T20:21:24.409Z,5.20
2023-11-07T20:23:54.642Z,5.50
2023-11-07T20:26:22.306Z,5.60
2023-11-07T20:28:51.187Z,6.10
2023-11-07T20:31:19.123Z,5.90
2023-11-07T20:33:49.988Z,5.80
2023-11-07T20:36:19.645Z,6.00
2023-11-07T20:38:47.757Z,6.00
2023-11-07T20:41:19.936Z,5.60
2023-11-07T20:43:47.988Z,6.00
2023-11-07T20:46:30.623Z,5.60
2023-11-07T20:49:03.622Z,5.50
2023-11-07T20:51:33.191Z,5.70
2023-11-07T20:54:00.650Z,5.80
2023-11-07T20:56:30.694Z,5.70
2023-11-07T20:58:58.161Z,5.60
2023-11-07T21:01:27.580Z,5.40
2023-11-07T21:03:56.895Z,5.50
2023-11-07T21:06:25.159Z,5.50
2023-11-07T21:08:53.471Z,6.40
2023-11-07T21:11:23.622Z,5.90
2023-11-07T21:13:53.956Z,6.20
2023-11-07T21:16:21.551Z,9.00
2023-11-07T21:18:49.202Z,11.70
2023-11-07T21:21:16.996Z,12.60
2023-11-07T21:23:44.676Z,14.30
2023-11-07T21:26:12.102Z,15.90
2023-11-07T21:28:39.412Z,20.90
2023-11-07T21:31:06.858Z,22.00
2023-11-07T21:33:34.621Z,23.10
2023-11-07T21:36:02.829Z,23.20
2023-11-07T21:38:30.743Z,26.40
2023-11-07T21:40:58.017Z,21.10
2023-11-07T21:43:25.680Z,19.60
2023-11-07T21:45:53.346Z,16.80
2023-11-07T21:48:27.237Z,11.20
2023-11-07T21:50:56.867Z,11.00
2023-11-07T21:53:25.734Z,11.20
2023-11-07T21:55:54.552Z,10.50
2023-11-07T21:58:21.892Z,10.60
2023-11-07T22:00:49.122Z,10.10
2023-11-07T22:03:16.492Z,9.50
2023-11-07T22:05:43.887Z,9.50
2023-11-07T22:08:11.956Z,9.60
2023-11-07T22:10:39.265Z,9.70
2023-11-07T22:13:06.501Z,10.40
2023-11-07T22:15:33.734Z,9.80
2023-11-07T22:18:01.149Z,10.60
2023-11-07T22:20:28.555Z,10.00
2023-11-07T22:22:55.768Z,9.80
2023-11-07T22:25:23.015Z,9.90
2023-11-07T22:27:50.304Z,10.20
2023-11-07T22:30:17.856Z,9.90
2023-11-07T22:32:45.442Z,10.10
2023-11-07T22:35:14.088Z,10.00
2023-11-07T22:37:41.616Z,9.60
2023-11-07T22:40:12.194Z,9.60
2023-11-07T22:42:41.426Z,9.60
2023-11-07T22:45:09.896Z,10.00
2023-11-07T22:47:40.629Z,10.10
2023-11-07T22:50:08.749Z,8.80
2023-11-07T22:52:36.025Z,8.40
2023-11-07T22:55:03.854Z,8.40
2023-11-07T22:57:31.171Z,8.20
2023-11-07T22:59:58.552Z,9.10
2023-11-07T23:02:25.768Z,7.90
2023-11-07T23:04:53.318Z,8.70
2023-11-07T23:07:21.559Z,9.80
2023-11-07T23:09:50.501Z,8.90
2023-11-07T23:12:18.106Z,8.80
2023-11-07T23:14:46.742Z,8.80
2023-11-07T23:17:14.719Z,9.00
2023-11-07T23:19:42.807Z,8.80
2023-11-07T23:22:13.501Z,8.50
2023-11-07T23:24:43.649Z,8.50
2023-11-07T23:27:11.087Z,8.90
2023-11-07T23:29:39.111Z,9.20
2023-11-07T23:32:07.480Z,8.50
2023-11-07T23:34:34.848Z,8.50
2023-11-07T23:37:02.256Z,8.10
2023-11-07T23:39:30.329Z,8.00
2023-11-07T23:41:57.800Z,8.90
2023-11-07T23:44:27.600Z,8.00
2023-11-07T23:46:55.265Z,7.70
2023-11-07T23:49:22.549Z,7.10
2023-11-07T23:51:49.998Z,6.50
2023-11-07T23:54:17.356Z,6.40
2023-11-07T23:56:44.821Z,6.50
2023-11-07T23:59:12.031Z,6.60
